Time;durP1;ratioP1;P1;durP2;ratioP2;P2;SDS_P1;SDS_P2;PMS_P1;PMS_P2;Temp;Humidity;BMP_temperature;BMP_pressure;BME280_temperature;BME280_humidity;BME280_pressure;Samples;Min_cycle;Max_cycle;Signal;HPM_P1;HPM_P2
2022/07/26 00:02:00;;;;;;;0.00;0.00;;;21.60;99.90;;;;;;5074734;28;20433;-77
2022/07/26 00:04:26;;;;;;;3.53;0.45;;;21.50;99.90;;;;;;5092654;28;20116;-78
2022/07/26 00:06:52;;;;;;;0.30;0.30;;;21.60;99.90;;;;;;5094313;28;20150;-78
2022/07/26 00:09:18;;;;;;;9.52;1.25;;;21.50;99.90;;;;;;5096324;28;20507;-78
2022/07/26 00:11:44;;;;;;;0.20;0.17;;;21.50;99.90;;;;;;5096259;28;20024;-78
2022/07/26 00:14:10;;;;;;;0.10;0.10;;;21.40;99.90;;;;;;5095943;28;20035;-80
2022/07/26 00:16:36;;;;;;;0.32;0.32;;;21.40;99.90;;;;;;5095984;28;20047;-79
2022/07/26 00:19:03;;;;;;;0.35;0.20;;;21.30;99.90;;;;;;5096299;28;20053;-79
2022/07/26 00:21:29;;;;;;;1.08;0.85;;;21.30;99.90;;;;;;5096477;28;20019;-80
2022/07/26 00:23:55;;;;;;;0.20;0.20;;;21.30;99.90;;;;;;5096173;28;20414;-80
2022/07/26 00:26:21;;;;;;;0.10;0.10;;;21.30;99.90;;;;;;5096144;28;20044;-80
2022/07/26 00:28:47;;;;;;;0.25;0.25;;;21.30;99.90;;;;;;5095943;28;20086;-79
2022/07/26 00:31:13;;;;;;;0.20;0.20;;;21.30;99.90;;;;;;5096093;28;20020;-80
2022/07/26 00:33:39;;;;;;;0.25;0.25;;;21.30;99.90;;;;;;5095919;28;20028;-81
2022/07/26 00:36:05;;;;;;;0.30;0.30;;;21.30;99.90;;;;;;5077692;28;20028;-80
2022/07/26 00:38:31;;;;;;;0.30;0.20;;;21.30;99.90;;;;;;5077517;28;20024;-80
2022/07/26 00:40:57;;;;;;;0.30;0.30;;;21.30;99.90;;;;;;5095985;28;20069;-80
2022/07/26 00:43:23;;;;;;;0.75;0.73;;;21.20;99.90;;;;;;5077759;28;20024;-81
2022/07/26 00:45:49;;;;;;;0.38;0.38;;;21.20;99.90;;;;;;5096003;28;20043;-81
2022/07/26 00:48:15;;;;;;;0.55;0.45;;;21.20;99.90;;;;;;5095656;28;20070;-79
2022/07/26 00:50:41;;;;;;;0.25;0.25;;;21.20;99.90;;;;;;5095731;28;20024;-78
2022/07/26 00:53:07;;;;;;;0.65;0.10;;;21.20;99.90;;;;;;5095481;28;20091;-80
2022/07/26 00:55:33;;;;;;;0.28;0.28;;;21.10;99.90;;;;;;5095208;28;20130;-80
2022/07/26 00:58:02;;;;;;;0.55;0.55;;;21.10;99.90;;;;;;5095514;28;20027;-81
2022/07/26 01:00:28;;;;;;;0.03;0.03;;;21.20;99.90;;;;;;5095609;28;20016;-80
2022/07/26 01:02:55;;;;;;;0.05;0.00;;;21.10;99.90;;;;;;5077393;28;20028;-80
2022/07/26 01:05:22;;;;;;;0.10;0.10;;;21.10;99.90;;;;;;5095565;28;20457;-81
2022/07/26 01:07:48;;;;;;;0.88;0.85;;;21.10;99.90;;;;;;5095241;28;20494;-79
2022/07/26 01:10:15;;;;;;;0.45;0.45;;;21.10;99.90;;;;;;5095353;28;20032;-77
2022/07/26 01:12:42;;;;;;;0.20;0.20;;;21.00;99.90;;;;;;5095283;28;20046;-78
2022/07/26 01:15:09;;;;;;;0.38;0.20;;;21.00;99.90;;;;;;5095292;28;20114;-80
2022/07/26 01:17:35;;;;;;;0.20;0.20;;;20.90;99.90;;;;;;5076475;28;20025;-80
2022/07/26 01:20:02;;;;;;;0.20;0.20;;;20.90;99.90;;;;;;5095209;28;20016;-81
2022/07/26 01:22:28;;;;;;;0.00;0.00;;;20.90;99.90;;;;;;5095076;28;20057;-80
2022/07/26 01:24:53;;;;;;;0.10;0.10;;;20.80;99.90;;;;;;5076689;28;20020;-80
2022/07/26 01:27:19;;;;;;;0.00;0.00;;;20.80;99.90;;;;;;5094744;28;20028;-80
2022/07/26 01:29:45;;;;;;;1.25;0.95;;;20.70;99.90;;;;;;5094815;28;20395;-78
2022/07/26 01:32:11;;;;;;;0.20;0.20;;;20.70;99.90;;;;;;5094916;28;20016;-81
2022/07/26 01:34:36;;;;;;;0.90;0.30;;;20.70;99.90;;;;;;5094738;28;20035;-80
2022/07/26 01:37:02;;;;;;;0.28;0.28;;;20.60;99.90;;;;;;5094763;28;20024;-80
2022/07/26 01:39:28;;;;;;;0.52;0.52;;;20.50;99.90;;;;;;5094849;28;20028;-79
2022/07/26 01:41:55;;;;;;;0.10;0.10;;;20.50;99.90;;;;;;5076638;28;20027;-80
2022/07/26 01:44:21;;;;;;;0.22;0.22;;;20.40;99.90;;;;;;5094732;28;20460;-78
2022/07/26 01:46:47;;;;;;;0.03;0.03;;;20.40;99.90;;;;;;5076362;28;20024;-77
2022/07/26 01:49:13;;;;;;;0.17;0.15;;;20.30;99.90;;;;;;5094161;28;20035;-77
2022/07/26 01:51:39;;;;;;;0.10;0.10;;;20.30;99.90;;;;;;5094299;28;20051;-77
2022/07/26 01:54:05;;;;;;;0.13;0.10;;;20.30;99.90;;;;;;5075854;28;20071;-80
2022/07/26 01:56:30;;;;;;;0.10;0.10;;;20.60;99.90;;;;;;5076011;28;20024;-77
2022/07/26 01:58:56;;;;;;;0.20;0.20;;;20.20;99.90;;;;;;5094046;28;20070;-77
2022/07/26 02:01:22;;;;;;;0.22;0.17;;;20.10;99.90;;;;;;5075852;28;20025;-77
2022/07/26 02:03:47;;;;;;;0.28;0.28;;;20.10;99.90;;;;;;5075877;28;20500;-77
2022/07/26 02:06:13;;;;;;;0.15;0.15;;;;;;;;;;5094230;28;20020;-77
2022/07/26 02:08:39;;;;;;;0.10;0.10;;;20.10;99.90;;;;;;5075795;28;20373;-77
2022/07/26 02:11:05;;;;;;;0.15;0.15;;;20.10;99.90;;;;;;5094043;28;20035;-77
2022/07/26 02:13:34;;;;;;;0.17;0.17;;;20.10;99.90;;;;;;5094109;28;20031;-79
2022/07/26 02:16:01;;;;;;;0.10;0.10;;;20.10;99.90;;;;;;5093886;28;20016;-77
2022/07/26 02:18:28;;;;;;;0.20;0.20;;;20.10;99.90;;;;;;5075490;28;20073;-77
2022/07/26 02:20:54;;;;;;;0.17;0.17;;;20.10;99.90;;;;;;5093675;28;20049;-77
2022/07/26 02:23:21;;;;;;;0.10;0.10;;;20.10;99.90;;;;;;5093700;28;20020;-77
2022/07/26 02:25:47;;;;;;;0.30;0.20;;;20.10;99.90;;;;;;5093744;28;20020;-78
2022/07/26 02:28:14;;;;;;;0.47;0.47;;;20.10;99.90;;;;;;5093572;28;20024;-77
2022/07/26 02:30:40;;;;;;;0.22;0.22;;;20.10;99.90;;;;;;5093261;28;20042;-79
2022/07/26 02:33:06;;;;;;;0.52;0.30;;;20.00;99.90;;;;;;5075418;28;20043;-77
2022/07/26 02:35:32;;;;;;;0.10;0.10;;;20.00;99.90;;;;;;5093734;28;20020;-80
2022/07/26 02:38:03;;;;;;;0.00;0.00;;;20.00;99.90;;;;;;5093699;28;20020;-77
2022/07/26 02:40:29;;;;;;;0.30;0.30;;;20.00;99.90;;;;;;5093345;28;20057;-78
2022/07/26 02:42:55;;;;;;;0.10;0.10;;;20.00;99.90;;;;;;5093492;28;20024;-79
2022/07/26 02:45:20;;;;;;;0.00;0.00;;;20.00;99.90;;;;;;5093453;28;20468;-79
2022/07/26 02:47:48;;;;;;;0.73;0.40;;;20.00;99.90;;;;;;5093520;28;20095;-77
2022/07/26 02:50:19;;;;;;;0.20;0.20;;;19.90;99.90;;;;;;5093675;28;20020;-77
2022/07/26 02:52:48;;;;;;;0.10;0.10;;;19.90;99.90;;;;;;5093435;28;20020;-78
2022/07/26 02:55:14;;;;;;;;;;;19.90;99.90;;;;;;5093821;28;20044;-78
2022/07/26 02:57:40;;;;;;;0.63;0.30;;;19.80;99.90;;;;;;5093172;28;19950;-78
2022/07/26 03:00:08;;;;;;;0.52;0.52;;;19.80;99.90;;;;;;5075099;28;20024;-77
2022/07/26 03:02:34;;;;;;;0.57;0.10;;;19.80;99.90;;;;;;5093119;28;20078;-78
2022/07/26 03:05:01;;;;;;;0.45;0.25;;;19.80;99.90;;;;;;5093285;28;20342;-78
2022/07/26 03:07:27;;;;;;;0.20;0.20;;;19.80;99.90;;;;;;5093372;28;20107;-77
2022/07/26 03:09:52;;;;;;;1.52;0.10;;;19.80;99.90;;;;;;5093199;28;20032;-79
2022/07/26 03:12:18;;;;;;;0.35;0.32;;;19.80;99.90;;;;;;5075023;28;20017;-78
2022/07/26 03:14:44;;;;;;;0.20;0.20;;;19.80;99.90;;;;;;5075074;28;20103;-79
2022/07/26 03:17:09;;;;;;;2.70;0.85;;;19.80;99.90;;;;;;5074912;28;20025;-80
2022/07/26 03:19:35;;;;;;;1.88;0.25;;;19.80;99.90;;;;;;5074867;28;20024;-78
2022/07/26 03:22:01;;;;;;;0.52;0.20;;;19.70;99.90;;;;;;5093415;28;20029;-78
2022/07/26 03:24:26;;;;;;;7.18;0.65;;;19.70;99.90;;;;;;5075130;28;20090;-80
2022/07/26 03:26:52;;;;;;;0.45;0.45;;;19.70;99.90;;;;;;5092949;28;20476;-78
2022/07/26 03:29:17;;;;;;;0.25;0.25;;;19.80;99.90;;;;;;5093160;28;20040;-78
2022/07/26 03:31:43;;;;;;;0.65;0.57;;;19.70;99.90;;;;;;5092900;28;20055;-78
2022/07/26 03:34:11;;;;;;;0.20;0.20;;;19.70;99.90;;;;;;5092897;28;20078;-80
2022/07/26 03:36:37;;;;;;;0.50;0.50;;;19.70;99.90;;;;;;5092829;28;20036;-78
2022/07/26 03:39:03;;;;;;;0.20;0.20;;;;;;;;;;5092829;28;20468;-77
2022/07/26 03:41:30;;;;;;;0.10;0.10;;;19.70;99.90;;;;;;5096429;28;20012;-77
2022/07/26 03:43:56;;;;;;;0.10;0.10;;;19.70;99.90;;;;;;5097520;28;20028;-78
2022/07/26 03:46:22;;;;;;;0.17;0.17;;;19.70;99.90;;;;;;5097785;28;20020;-77
2022/07/26 03:48:48;;;;;;;0.22;0.22;;;19.60;99.90;;;;;;5096811;28;20039;-77
2022/07/26 03:51:13;;;;;;;0.10;0.10;;;19.60;99.90;;;;;;5078646;28;20141;-77
2022/07/26 03:53:39;;;;;;;0.43;0.35;;;19.50;99.90;;;;;;5078423;28;20036;-77
2022/07/26 03:58:50;;;;;;;0.80;0.22;;;19.50;99.90;;;;;;5096671;28;20065;-78
2022/07/26 04:01:16;;;;;;;0.10;0.10;;;19.40;99.90;;;;;;5096661;28;20051;-78
2022/07/26 04:03:41;;;;;;;0.20;0.20;;;19.40;99.90;;;;;;5096727;28;20577;-78
2022/07/26 04:06:07;;;;;;;0.80;0.22;;;19.40;99.90;;;;;;5096560;28;20052;-78
2022/07/26 04:08:33;;;;;;;0.15;0.08;;;19.40;99.90;;;;;;5078161;28;20032;-77
2022/07/26 04:10:59;;;;;;;0.10;0.10;;;;;;;;;;5096428;28;20434;-78
2022/07/26 04:13:25;;;;;;;0.43;0.22;;;19.40;99.90;;;;;;5096193;28;20103;-78
2022/07/26 04:15:51;;;;;;;0.30;0.15;;;19.40;99.90;;;;;;5096174;28;20395;-78
2022/07/26 04:18:16;;;;;;;0.15;0.10;;;19.40;99.90;;;;;;5096107;28;20047;-77
2022/07/26 04:20:42;;;;;;;0.10;0.10;;;19.40;99.90;;;;;;5096155;28;20480;-78
2022/07/26 04:23:08;;;;;;;0.10;0.10;;;19.40;99.90;;;;;;5096198;28;20070;-78
2022/07/26 04:25:34;;;;;;;0.50;0.50;;;19.40;99.90;;;;;;5096129;28;20456;-77
2022/07/26 04:28:01;;;;;;;0.65;0.30;;;19.40;99.90;;;;;;5096041;28;20017;-78
2022/07/26 04:30:27;;;;;;;0.10;0.10;;;19.30;99.90;;;;;;5077890;28;20417;-78
2022/07/26 04:32:52;;;;;;;0.20;0.10;;;19.30;99.90;;;;;;5095847;28;20026;-78
2022/07/26 04:35:18;;;;;;;0.03;0.03;;;19.20;99.90;;;;;;5096657;28;20103;-78
2022/07/26 04:37:45;;;;;;;0.17;0.17;;;19.20;99.90;;;;;;5095831;28;20024;-77
2022/07/26 04:40:16;;;;;;;0.47;0.47;;;19.20;99.90;;;;;;5095913;28;20028;-78
2022/07/26 04:42:41;;;;;;;0.20;0.20;;;19.10;99.90;;;;;;5096378;28;20047;-78
2022/07/26 04:45:09;;;;;;;0.20;0.20;;;19.10;99.90;;;;;;5097018;28;20024;-77
2022/07/26 04:47:35;;;;;;;1.70;0.70;;;19.00;99.90;;;;;;5079037;28;20036;-78
2022/07/26 04:50:01;;;;;;;0.10;0.10;;;;;;;;;;5077445;28;20047;-78
2022/07/26 04:52:27;;;;;;;2.05;0.52;;;19.00;99.90;;;;;;5076604;28;20073;-78
2022/07/26 04:54:53;;;;;;;0.22;0.22;;;;;;;;;;5074880;28;20049;-77
2022/07/26 04:57:19;;;;;;;0.40;0.40;;;18.90;99.90;;;;;;5075541;28;20546;-79
2022/07/26 04:59:44;;;;;;;1.05;0.40;;;18.90;99.90;;;;;;5075212;28;20032;-78
2022/07/26 05:02:10;;;;;;;0.45;0.30;;;18.90;99.90;;;;;;5074145;28;20020;-79
2022/07/26 05:04:36;;;;;;;3.83;0.88;;;18.80;99.90;;;;;;5073787;28;20021;-78
2022/07/26 05:07:02;;;;;;;0.22;0.22;;;18.90;99.90;;;;;;5075076;28;20171;-77
2022/07/26 05:09:30;;;;;;;0.30;0.30;;;18.90;99.90;;;;;;5075282;28;20123;-80
2022/07/26 05:11:56;;;;;;;0.10;0.10;;;18.90;99.90;;;;;;5074989;28;20030;-79
2022/07/26 05:14:21;;;;;;;0.30;0.30;;;18.80;99.90;;;;;;5075863;28;20107;-78
2022/07/26 05:16:47;;;;;;;0.30;0.30;;;18.80;99.90;;;;;;5074689;28;20073;-82
2022/07/26 05:19:14;;;;;;;0.38;0.38;;;18.80;99.90;;;;;;5073523;28;20028;-78
2022/07/26 05:21:39;;;;;;;0.35;0.32;;;18.80;99.90;;;;;;5074731;28;20024;-77
2022/07/26 05:24:05;;;;;;;0.93;0.43;;;18.80;99.90;;;;;;5073480;28;20081;-77
2022/07/26 05:26:31;;;;;;;0.45;0.45;;;18.80;99.90;;;;;;5073856;28;20021;-77
2022/07/26 05:28:57;;;;;;;0.40;0.40;;;18.90;99.90;;;;;;5075427;28;20036;-77
2022/07/26 05:31:26;;;;;;;0.40;0.40;;;18.90;99.90;;;;;;5074935;28;20398;-77
2022/07/26 05:33:52;;;;;;;0.28;0.28;;;18.80;99.90;;;;;;5074949;28;20507;-78
2022/07/26 05:36:19;;;;;;;1.20;0.25;;;19.00;99.90;;;;;;5073140;28;20041;-77
2022/07/26 05:38:45;;;;;;;0.25;0.25;;;19.00;99.90;;;;;;5074389;28;20043;-78
2022/07/26 05:41:11;;;;;;;0.40;0.40;;;19.00;99.90;;;;;;5075089;28;20016;-77
2022/07/26 05:43:36;;;;;;;0.50;0.50;;;19.00;99.90;;;;;;5080705;28;20025;-77
2022/07/26 05:46:02;;;;;;;0.52;0.52;;;19.00;99.90;;;;;;5076504;28;20465;-78
2022/07/26 05:48:31;;;;;;;0.55;0.55;;;19.00;99.90;;;;;;5080725;28;20385;-77
2022/07/26 05:50:58;;;;;;;0.38;0.38;;;19.10;99.90;;;;;;5079840;28;20031;-77
2022/07/26 05:53:24;;;;;;;0.85;0.65;;;19.30;99.90;;;;;;5078728;28;20021;-77
2022/07/26 05:55:50;;;;;;;0.30;0.30;;;19.30;99.90;;;;;;5092160;28;20047;-77
2022/07/26 06:02:18;;;;;;;0.80;0.80;;;19.40;99.90;;;;;;5120593;28;20058;-85
2022/07/26 06:04:45;;;;;;;0.30;0.30;;;19.40;99.90;;;;;;5077568;28;20029;-92
2022/07/26 06:07:11;;;;;;;0.20;0.20;;;19.50;99.90;;;;;;5076862;28;20483;-90
2022/07/26 06:09:37;;;;;;;2.78;0.40;;;19.60;99.90;;;;;;5076719;28;20122;-90
2022/07/26 06:15:12;;;;;;;1.20;0.47;;;19.70;99.90;;;;;;5320171;22;20057;-90
2022/07/26 06:17:41;;;;;;;0.28;0.28;;;19.60;99.90;;;;;;4997539;28;20483;-87
2022/07/26 06:20:07;;;;;;;0.13;0.10;;;19.60;99.90;;;;;;5014962;28;20076;-90
2022/07/26 06:22:33;;;;;;;0.50;0.22;;;19.70;99.90;;;;;;4997228;28;20053;-84
2022/07/26 06:24:59;;;;;;;0.25;0.25;;;19.70;99.90;;;;;;5013571;28;20018;-79
2022/07/26 06:27:25;;;;;;;1.77;0.30;;;19.70;99.90;;;;;;5013676;28;20101;-80
2022/07/26 06:29:51;;;;;;;0.10;0.10;;;19.70;99.90;;;;;;4995715;28;20037;-79
2022/07/26 06:32:17;;;;;;;0.95;0.52;;;19.70;99.90;;;;;;4995751;28;20113;-79
2022/07/26 06:34:42;;;;;;;2.20;0.60;;;19.70;99.90;;;;;;4995971;28;20117;-80
2022/07/26 06:37:08;;;;;;;0.30;0.30;;;19.80;99.90;;;;;;4995874;28;20044;-78
2022/07/26 06:39:34;;;;;;;0.55;0.55;;;20.00;99.90;;;;;;4995886;28;20033;-78
2022/07/26 06:41:59;;;;;;;0.25;0.25;;;20.20;99.90;;;;;;5013473;28;20100;-79
2022/07/26 06:44:25;;;;;;;0.15;0.15;;;20.30;99.90;;;;;;5013432;28;20441;-78
2022/07/26 06:46:50;;;;;;;0.85;0.15;;;20.40;99.90;;;;;;5013192;28;20026;-80
2022/07/26 06:49:16;;;;;;;0.15;0.15;;;20.60;99.90;;;;;;5013539;28;20034;-82
2022/07/26 06:51:42;;;;;;;0.30;0.30;;;20.80;99.90;;;;;;5013866;28;20033;-80
2022/07/26 06:54:07;;;;;;;0.40;0.40;;;20.70;99.90;;;;;;4996079;28;20454;-79
2022/07/26 06:56:33;;;;;;;0.52;0.50;;;21.00;99.90;;;;;;5013588;28;20024;-81
2022/07/26 06:58:59;;;;;;;0.52;0.52;;;21.30;99.90;;;;;;5013793;28;20030;-82
2022/07/26 07:01:24;;;;;;;0.10;0.10;;;22.00;99.90;;;;;;4996140;28;20022;-82
2022/07/26 07:03:50;;;;;;;0.13;0.13;;;22.30;99.90;;;;;;4995927;28;20028;-81
2022/07/26 07:06:15;;;;;;;0.40;0.40;;;23.10;99.90;;;;;;4995817;28;20116;-82
2022/07/26 07:08:41;;;;;;;0.47;0.20;;;23.80;99.90;;;;;;5013561;28;20104;-82
2022/07/26 07:11:07;;;;;;;0.10;0.10;;;24.20;99.90;;;;;;4996002;28;20026;-81
2022/07/26 07:13:32;;;;;;;0.93;0.28;;;24.60;99.90;;;;;;4995771;28;20018;-80
2022/07/26 07:15:58;;;;;;;6.22;0.70;;;24.80;99.90;;;;;;4999771;28;20474;-83
2022/07/26 07:18:24;;;;;;;0.35;0.35;;;25.10;99.90;;;;;;5020112;28;20018;-80
2022/07/26 07:20:49;;;;;;;0.65;0.40;;;25.40;99.90;;;;;;5002377;28;20021;-83
2022/07/26 07:23:15;;;;;;;0.80;0.65;;;25.60;99.90;;;;;;5020236;28;20167;-83
2022/07/26 07:25:41;;;;;;;1.20;0.20;;;25.60;99.90;;;;;;5002237;28;20450;-82
2022/07/26 07:28:06;;;;;;;0.47;0.47;;;26.20;99.90;;;;;;5002078;28;20022;-79
2022/07/26 07:30:32;;;;;;;0.20;0.20;;;26.10;99.90;;;;;;5019884;28;20053;-81
2022/07/26 07:32:58;;;;;;;0.98;0.65;;;26.20;97.80;;;;;;5020104;28;20026;-82
2022/07/26 07:35:23;;;;;;;0.30;0.30;;;25.60;99.90;;;;;;5002401;28;20332;-81
2022/07/26 07:37:49;;;;;;;0.10;0.10;;;25.30;99.90;;;;;;5019756;28;20028;-81
2022/07/26 07:40:15;;;;;;;1.42;1.33;;;25.40;99.40;;;;;;5019531;28;20026;-81
2022/07/26 07:42:40;;;;;;;0.30;0.30;;;25.60;99.90;;;;;;5001840;28;20117;-81
2022/07/26 07:45:08;;;;;;;0.10;0.10;;;26.00;97.70;;;;;;5001966;28;20080;-82
2022/07/26 07:47:34;;;;;;;0.03;0.03;;;26.50;96.60;;;;;;5001985;28;20026;-81
2022/07/26 07:50:00;;;;;;;0.20;0.20;;;26.00;96.10;;;;;;5019367;28;20037;-79
2022/07/26 07:52:26;;;;;;;0.32;0.32;;;25.60;95.30;;;;;;5019943;28;20101;-81
2022/07/26 07:54:51;;;;;;;0.85;0.40;;;25.10;97.90;;;;;;5001861;28;20160;-82
2022/07/26 07:57:19;;;;;;;2.17;0.28;;;25.60;98.10;;;;;;5001997;28;20072;-82
2022/07/26 07:59:45;;;;;;;0.10;0.10;;;24.70;97.90;;;;;;5001910;28;20041;-77
2022/07/26 08:02:11;;;;;;;0.50;0.30;;;24.10;99.90;;;;;;5019763;28;20026;-85
2022/07/26 08:04:37;;;;;;;0.43;0.43;;;24.40;99.90;;;;;;5002200;28;20060;-84
2022/07/26 08:07:04;;;;;;;6.57;0.88;;;25.00;98.70;;;;;;5019947;28;20054;-82
2022/07/26 08:09:30;;;;;;;0.30;0.30;;;25.60;95.50;;;;;;5002095;28;20410;-84
2022/07/26 08:11:55;;;;;;;0.20;0.10;;;26.80;85.60;;;;;;5001855;28;20487;-79
2022/07/26 08:14:21;;;;;;;0.20;0.20;;;27.70;78.50;;;;;;5001562;28;20049;-79
2022/07/26 08:16:47;;;;;;;0.10;0.10;;;27.00;76.20;;;;;;5019324;28;20026;-80
2022/07/26 08:19:12;;;;;;;0.65;0.65;;;25.70;82.90;;;;;;5019230;28;20036;-79
2022/07/26 08:21:38;;;;;;;0.20;0.20;;;25.60;92.20;;;;;;5001908;28;20490;-87
2022/07/26 08:24:04;;;;;;;0.65;0.20;;;26.20;87.20;;;;;;5019586;28;20078;-81
2022/07/26 08:26:29;;;;;;;0.47;0.40;;;26.70;81.40;;;;;;5000312;28;20022;-85
2022/07/26 08:28:55;;;;;;;2.90;1.17;;;27.50;74.90;;;;;;4998530;28;20441;-83
2022/07/26 08:31:21;;;;;;;0.55;0.10;;;27.50;70.70;;;;;;4998853;28;20033;-84
2022/07/26 08:33:47;;;;;;;0.32;0.32;;;27.30;73.20;;;;;;5016160;28;20057;-82
2022/07/26 08:36:14;;;;;;;0.32;0.10;;;28.10;70.30;;;;;;5015740;28;20382;-83
2022/07/26 08:38:40;;;;;;;1.38;0.98;;;28.10;67.10;;;;;;4998677;28;20030;-82
2022/07/26 08:41:06;;;;;;;0.25;0.10;;;28.90;66.10;;;;;;4999615;28;20037;-90
2022/07/26 08:43:32;;;;;;;0.25;0.25;;;29.00;62.90;;;;;;4999231;28;20406;-88
2022/07/26 08:46:02;;;;;;;0.15;0.15;;;27.80;61.20;;;;;;4998825;28;20026;-81
2022/07/26 08:48:28;;;;;;;0.00;0.00;;;26.20;65.80;;;;;;5015861;28;20034;-81
2022/07/26 08:50:54;;;;;;;0.10;0.10;;;25.30;69.60;;;;;;5015820;28;20105;-81
2022/07/26 08:53:21;;;;;;;2.55;0.30;;;24.30;71.70;;;;;;4998133;28;20053;-80
2022/07/26 08:55:46;;;;;;;0.40;0.28;;;24.50;71.40;;;;;;4997865;28;20041;-79
2022/07/26 08:58:12;;;;;;;0.10;0.10;;;25.20;70.10;;;;;;4997949;28;20025;-79
2022/07/26 09:00:40;;;;;;;0.10;0.10;;;25.30;69.30;;;;;;5015408;28;20029;-80
2022/07/26 09:03:05;;;;;;;0.05;0.05;;;26.30;69.30;;;;;;5015520;28;20045;-79
2022/07/26 09:05:34;;;;;;;0.28;0.22;;;27.50;67.40;;;;;;5015491;28;20084;-80
2022/07/26 09:08:20;;;;;;;;;;;27.90;64.30;;;;;;5015789;28;20018;-79
2022/07/26 09:10:46;;;;;;;0.88;0.38;;;28.30;62.70;;;;;;5015669;28;19913;-80
2022/07/26 09:13:11;;;;;;;1.65;0.10;;;28.00;64.60;;;;;;4997709;28;20120;-80
2022/07/26 09:15:37;;;;;;;0.10;0.10;;;27.90;64.10;;;;;;4997507;28;20046;-81
2022/07/26 09:18:03;;;;;;;0.20;0.10;;;27.40;61.30;;;;;;4997523;28;20129;-79
2022/07/26 09:20:30;;;;;;;0.10;0.10;;;26.40;61.90;;;;;;4997781;28;20061;-83
2022/07/26 09:23:08;;;;;;;0.10;0.10;;;26.90;61.40;;;;;;5015917;28;20026;-89
2022/07/26 09:25:39;;;;;;;0.65;0.65;;;27.20;59.80;;;;;;4998500;28;20036;-88
2022/07/26 09:28:21;;;;;;;0.10;0.10;;;27.20;61.00;;;;;;5016379;28;20102;-89
2022/07/26 09:30:53;;;;;;;0.10;0.10;;;27.00;60.10;;;;;;4999156;28;20112;-90
2022/07/26 09:33:19;;;;;;;1.75;0.90;;;27.40;61.20;;;;;;4998053;28;20068;-90
2022/07/26 09:36:05;;;;;;;0.10;0.10;;;27.60;60.60;;;;;;5015673;28;20420;-90
2022/07/26 09:39:02;;;;;;;0.10;0.10;;;26.80;59.90;;;;;;4997733;28;20026;-88
2022/07/26 09:41:30;;;;;;;0.03;0.03;;;26.10;60.80;;;;;;4997555;28;20041;-89
2022/07/26 09:43:59;;;;;;;0.10;0.10;;;26.20;60.70;;;;;;4999797;28;20014;-91
2022/07/26 09:46:26;;;;;;;0.10;0.10;;;25.80;61.90;;;;;;5016495;28;20022;-91
2022/07/26 09:48:54;;;;;;;0.65;0.45;;;25.30;62.90;;;;;;4999462;28;20037;-82
2022/07/26 09:51:40;;;;;;;0.10;0.10;;;24.80;63.10;;;;;;5014965;28;20025;-82
2022/07/26 09:54:06;;;;;;;0.50;0.10;;;25.20;63.00;;;;;;5011693;28;20033;-89
2022/07/26 09:56:49;;;;;;;0.60;0.22;;;25.40;60.50;;;;;;5015072;28;20026;-88
2022/07/26 09:59:18;;;;;;;0.73;0.35;;;25.40;63.10;;;;;;4997465;28;20024;-84
2022/07/26 10:01:44;;;;;;;0.28;0.28;;;25.90;60.70;;;;;;4997313;28;20026;-84
2022/07/26 10:04:10;;;;;;;0.10;0.10;;;27.00;60.20;;;;;;5014895;28;20489;-86
2022/07/26 10:06:36;;;;;;;6.88;0.52;;;26.90;60.80;;;;;;4997521;28;20097;-87
2022/07/26 10:09:03;;;;;;;0.00;0.00;;;25.60;59.40;;;;;;5014590;28;20101;-85
2022/07/26 10:11:37;;;;;;;0.15;0.15;;;25.40;60.20;;;;;;4996991;28;20030;-87
2022/07/26 10:14:35;;;;;;;0.17;0.17;;;25.10;62.10;;;;;;4997313;28;20034;-86
2022/07/26 10:17:27;;;;;;;0.30;0.30;;;25.90;59.20;;;;;;4997203;28;20033;-91
2022/07/26 10:19:54;;;;;;;0.17;0.17;;;25.90;58.30;;;;;;4998337;28;20049;-89
2022/07/26 10:22:32;;;;;;;0.00;0.00;;;26.20;59.40;;;;;;4998175;28;20425;-92
2022/07/26 10:25:17;;;;;;;0.20;0.10;;;26.30;59.00;;;;;;5017730;28;20041;-90
2022/07/26 10:27:46;;;;;;;2.45;0.13;;;26.20;59.50;;;;;;4998598;28;20029;-90
2022/07/26 10:30:18;;;;;;;0.93;0.20;;;28.20;61.60;;;;;;4997986;28;20033;-89
2022/07/26 10:32:55;;;;;;;0.10;0.10;;;26.40;58.40;;;;;;4997700;28;20478;-89
2022/07/26 10:35:35;;;;;;;2.42;0.43;;;25.60;58.30;;;;;;4998156;28;20130;-94
2022/07/26 10:38:05;;;;;;;0.03;0.03;;;25.00;60.60;;;;;;4997849;28;20026;-92
2022/07/26 10:40:31;;;;;;;0.30;0.30;;;25.30;61.90;;;;;;4997403;28;20029;-89
2022/07/26 10:43:14;;;;;;;0.00;0.00;;;25.70;59.60;;;;;;4997217;28;20029;-93
2022/07/26 10:45:40;;;;;;;0.10;0.10;;;25.80;61.00;;;;;;4997063;28;20065;-92
2022/07/26 10:48:28;;;;;;;0.00;0.00;;;25.40;59.30;;;;;;4997068;28;20026;-88
2022/07/26 10:50:53;;;;;;;0.30;0.30;;;25.10;59.30;;;;;;4996871;28;20034;-90
2022/07/26 10:53:24;;;;;;;0.05;0.05;;;24.90;59.20;;;;;;5014749;28;20033;-86
2022/07/26 10:55:55;;;;;;;0.32;0.32;;;25.00;60.50;;;;;;4997833;28;20030;-85
2022/07/26 10:58:22;;;;;;;0.08;0.08;;;25.00;61.70;;;;;;4999851;28;20026;-93
2022/07/26 11:00:56;;;;;;;0.45;0.10;;;25.80;59.40;;;;;;5016384;28;20029;-92
2022/07/26 11:03:22;;;;;;;0.10;0.10;;;26.20;59.50;;;;;;4998344;28;20022;-93
2022/07/26 11:05:48;;;;;;;3.25;0.45;;;26.10;59.30;;;;;;4997060;28;20372;-84
2022/07/26 11:08:14;;;;;;;0.20;0.20;;;26.60;60.10;;;;;;4996078;28;20053;-82
2022/07/26 11:10:42;;;;;;;0.00;0.00;;;27.80;56.70;;;;;;4996233;28;20030;-85
2022/07/26 11:13:16;;;;;;;0.10;0.10;;;28.40;56.50;;;;;;4996617;28;20022;-85
2022/07/26 11:15:47;;;;;;;0.00;0.00;;;27.80;51.80;;;;;;4996342;28;20132;-85
2022/07/26 11:18:15;;;;;;;0.22;0.22;;;27.30;52.20;;;;;;4996464;28;20052;-87
2022/07/26 11:20:42;;;;;;;1.55;0.20;;;26.80;54.40;;;;;;4996583;28;20061;-84
2022/07/26 11:23:28;;;;;;;0.50;0.28;;;26.50;54.40;;;;;;4996371;28;20018;-84
2022/07/26 11:26:16;;;;;;;0.10;0.00;;;27.20;52.80;;;;;;4996006;28;20121;-83
2022/07/26 11:28:53;;;;;;;0.08;0.00;;;27.60;52.30;;;;;;4996013;28;20026;-84
2022/07/26 11:31:21;;;;;;;0.00;0.00;;;27.80;51.70;;;;;;4996218;28;20030;-85
2022/07/26 11:33:49;;;;;;;0.98;0.10;;;27.90;52.30;;;;;;4996415;28;20117;-85
2022/07/26 11:36:30;;;;;;;5.80;1.17;;;27.90;51.90;;;;;;4996311;28;20026;-84
2022/07/26 11:38:56;;;;;;;0.38;0.30;;;28.20;53.30;;;;;;5013433;28;20041;-84
2022/07/26 11:41:26;;;;;;;0.10;0.10;;;29.20;51.60;;;;;;5013439;28;20335;-86
2022/07/26 11:43:53;;;;;;;0.03;0.03;;;29.30;50.90;;;;;;4996056;28;20032;-86
2022/07/26 11:46:20;;;;;;;0.20;0.20;;;29.20;50.90;;;;;;4996144;28;20387;-86
2022/07/26 11:48:51;;;;;;;0.17;0.17;;;28.70;48.40;;;;;;4996166;28;20109;-86
2022/07/26 11:51:22;;;;;;;0.68;0.68;;;28.80;50.00;;;;;;4996327;28;20045;-85
2022/07/26 11:53:50;;;;;;;0.05;0.05;;;28.50;48.80;;;;;;4996072;28;20042;-88
2022/07/26 11:56:16;;;;;;;0.20;0.20;;;27.40;50.50;;;;;;4995906;28;20225;-88
2022/07/26 11:58:43;;;;;;;0.08;0.08;;;27.60;50.20;;;;;;5013588;28;20026;-86
2022/07/26 12:01:11;;;;;;;0.00;0.00;;;27.60;50.20;;;;;;4996437;28;20026;-83
2022/07/26 12:03:38;;;;;;;0.47;0.17;;;28.00;50.00;;;;;;4999500;28;20057;-87
2022/07/26 12:06:07;;;;;;;0.30;0.30;;;28.10;49.90;;;;;;5017238;28;20025;-90
2022/07/26 12:08:41;;;;;;;1.88;0.22;;;28.60;50.40;;;;;;4999271;28;20044;-82
2022/07/26 12:11:07;;;;;;;0.15;0.15;;;28.90;49.70;;;;;;5000013;28;20493;-84
2022/07/26 12:13:47;;;;;;;0.80;0.80;;;29.30;50.10;;;;;;5016892;28;20054;-84
2022/07/26 12:16:32;;;;;;;0.10;0.10;;;28.20;51.20;;;;;;4999679;28;20030;-88
2022/07/26 12:18:57;;;;;;;0.00;0.00;;;28.00;52.70;;;;;;5016849;28;20049;-84
2022/07/26 12:21:46;;;;;;;0.50;0.35;;;28.20;51.70;;;;;;4999376;28;20064;-85
2022/07/26 12:24:33;;;;;;;0.00;0.00;;;28.60;50.00;;;;;;4999257;28;20064;-84
2022/07/26 12:27:15;;;;;;;0.00;0.00;;;29.40;48.40;;;;;;4999113;28;20389;-82
2022/07/26 12:29:43;;;;;;;0.55;0.55;;;29.30;47.50;;;;;;4998884;28;20034;-86
2022/07/26 12:32:21;;;;;;;0.00;0.00;;;29.00;48.70;;;;;;4999109;28;20211;-83
2022/07/26 12:35:00;;;;;;;0.00;0.00;;;28.90;47.70;;;;;;4998786;28;20034;-81
2022/07/26 12:37:29;;;;;;;0.40;0.38;;;29.90;48.70;;;;;;4998735;28;20022;-82
2022/07/26 12:40:06;;;;;;;0.13;0.08;;;28.40;48.80;;;;;;4998731;28;20117;-84
2022/07/26 12:42:56;;;;;;;9.50;0.70;;;28.50;49.50;;;;;;4998780;28;20026;-82
2022/07/26 12:45:33;;;;;;;0.08;0.08;;;28.60;50.70;;;;;;4991797;28;20482;-82
2022/07/26 12:48:02;;;;;;;0.20;0.20;;;29.50;47.40;;;;;;4998810;28;20033;-82
2022/07/26 12:50:30;;;;;;;0.00;0.00;;;30.00;47.40;;;;;;5016005;28;20037;-82
2022/07/26 12:53:01;;;;;;;3.83;0.10;;;30.60;45.30;;;;;;4998273;28;20022;-81
2022/07/26 12:55:27;;;;;;;0.55;0.20;;;30.70;45.00;;;;;;5015845;28;20033;-82
2022/07/26 12:57:52;;;;;;;0.10;0.10;;;30.40;46.00;;;;;;4998274;28;20022;-83
2022/07/26 13:00:19;;;;;;;0.00;0.00;;;29.40;47.20;;;;;;5015757;28;20420;-84
2022/07/26 13:02:46;;;;;;;0.30;0.30;;;28.60;47.20;;;;;;4998191;28;20538;-79